Aviation Digital Data Service (ADDS)

Output produced by METARs form (1347 UTC 23 January 2019)
found at http://www.aviationweather.gov/metar/data/
 
METAR text: FXMM 231200Z 36006KT 9999 -TS BKN030 FEW035CB 34/// Q1019 NOSIG
Conditions at: FXMM (MASERU/MOSHOESHO, LS) observed 1200 UTC 23 January 2019
Temperature: missing
Dewpoint: missing
Pressure (altimeter): 30.09 inches Hg (1019.0 mb)
Winds: from the N (360 degrees) at 7 MPH (6 knots; 3.1 m/s)
Visibility: 6 or more miles (10+ km)
Ceiling: 3000 feet AGL
Clouds: broken clouds at 3000 feet AGL
few clouds at 3500 feet AGL
Weather: -TS  (unknown weather)

METAR text: FXMM 230700Z 36006KT CAVOK 27/10 Q1021 NOSIG
Conditions at: FXMM (MASERU/MOSHOESHO, LS) observed 0700 UTC 23 January 2019
Temperature: 27.0°C (81°F)
Dewpoint: 10.0°C (50°F) [RH = 34%]
Pressure (altimeter): 30.15 inches Hg (1021.0 mb)
Winds: from the N (360 degrees) at 7 MPH (6 knots; 3.1 m/s)
Visibility: 6 or more miles (10+ km)
Ceiling: ceiling and visibility are OK
Clouds: unknown
Weather: no significant weather observed at this time

METAR text: FXMM 230600Z 00000KT CAVOK 25/11 Q1021 NOSIG
Conditions at: FXMM (MASERU/MOSHOESHO, LS) observed 0600 UTC 23 January 2019
Temperature: 25.0°C (77°F)
Dewpoint: 11.0°C (52°F) [RH = 41%]
Pressure (altimeter): 30.15 inches Hg (1021.0 mb)
Winds: calm
Visibility: 6 or more miles (10+ km)
Ceiling: ceiling and visibility are OK
Clouds: unknown
Weather: no significant weather observed at this time

METAR text: FXMM 230500Z 06004KT CAVOK 22/11 Q//// NOSIG
Conditions at: FXMM (MASERU/MOSHOESHO, LS) observed 0500 UTC 23 January 2019
Temperature: 22.0°C (72°F)
Dewpoint: 11.0°C (52°F) [RH = 50%]
Pressure (altimeter): missing
Winds: from the ENE (60 degrees) at 5 MPH (4 knots; 2.1 m/s)
Visibility: 6 or more miles (10+ km)
Ceiling: ceiling and visibility are OK
Clouds: unknown
Weather: no significant weather observed at this time

METAR text: FXMM 230400Z 00000KT CAVOK 19/08 Q1021 NOSIG
Conditions at: FXMM (MASERU/MOSHOESHO, LS) observed 0400 UTC 23 January 2019
Temperature: 19.0°C (66°F)
Dewpoint: 8.0°C (46°F) [RH = 49%]
Pressure (altimeter): 30.15 inches Hg (1021.0 mb)
Winds: calm
Visibility: 6 or more miles (10+ km)
Ceiling: ceiling and visibility are OK
Clouds: unknown
Weather: no significant weather observed at this time

METAR text: FXMM 221200Z 36004KT 9999 SCT040 32/12 Q1022 NOSIG
Conditions at: FXMM (MASERU/MOSHOESHO, LS) observed 1200 UTC 22 January 2019
Temperature: 32.0°C (90°F)
Dewpoint: 12.0°C (54°F) [RH = 30%]
Pressure (altimeter): 30.18 inches Hg (1022.0 mb)
Winds: from the N (360 degrees) at 5 MPH (4 knots; 2.1 m/s)
Visibility: 6 or more miles (10+ km)
Ceiling: at least 12,000 feet AGL
Clouds: scattered clouds at 4000 feet AGL
Weather: no significant weather observed at this time

METAR text: FXMM 220900Z 29005KT 9999 FEW040 30/09 Q1024 NOSIG
Conditions at: FXMM (MASERU/MOSHOESHO, LS) observed 0900 UTC 22 January 2019
Temperature: 30.0°C (86°F)
Dewpoint: 9.0°C (48°F) [RH = 27%]
Pressure (altimeter): 30.24 inches Hg (1024.0 mb)
Winds: from the WNW (290 degrees) at 6 MPH (5 knots; 2.6 m/s)
Visibility: 6 or more miles (10+ km)
Ceiling: at least 12,000 feet AGL
Clouds: few clouds at 4000 feet AGL
Weather: no significant weather observed at this time

METAR text: FXMM 220800Z 27004KT 9999 FEW040 26/09 Q1026 NOSIG
Conditions at: FXMM (MASERU/MOSHOESHO, LS) observed 0800 UTC 22 January 2019
Temperature: 26.0°C (79°F)
Dewpoint: 9.0°C (48°F) [RH = 34%]
Pressure (altimeter): 30.30 inches Hg (1026.0 mb)
Winds: from the W (270 degrees) at 5 MPH (4 knots; 2.1 m/s)
Visibility: 6 or more miles (10+ km)
Ceiling: at least 12,000 feet AGL
Clouds: few clouds at 4000 feet AGL
Weather: no significant weather observed at this time

METAR text: FXMM 220700Z 00000KT CAVOK 25/09 Q1025 NOSIG
Conditions at: FXMM (MASERU/MOSHOESHO, LS) observed 0700 UTC 22 January 2019
Temperature: 25.0°C (77°F)
Dewpoint: 9.0°C (48°F) [RH = 36%]
Pressure (altimeter): 30.27 inches Hg (1025.0 mb)
Winds: calm
Visibility: 6 or more miles (10+ km)
Ceiling: ceiling and visibility are OK
Clouds: unknown
Weather: no significant weather observed at this time

METAR text: FXMM 220600Z 00000KT CAVOK 23/09 Q1024 NOSIG
Conditions at: FXMM (MASERU/MOSHOESHO, LS) observed 0600 UTC 22 January 2019
Temperature: 23.0°C (73°F)
Dewpoint: 9.0°C (48°F) [RH = 41%]
Pressure (altimeter): 30.24 inches Hg (1024.0 mb)
Winds: calm
Visibility: 6 or more miles (10+ km)
Ceiling: ceiling and visibility are OK
Clouds: unknown
Weather: no significant weather observed at this time

METAR text: FXMM 220500Z 00000KT CAVOK 19/09 Q1024 NOSIG
Conditions at: FXMM (MASERU/MOSHOESHO, LS) observed 0500 UTC 22 January 2019
Temperature: 19.0°C (66°F)
Dewpoint: 9.0°C (48°F) [RH = 52%]
Pressure (altimeter): 30.24 inches Hg (1024.0 mb)
Winds: calm
Visibility: 6 or more miles (10+ km)
Ceiling: ceiling and visibility are OK
Clouds: unknown
Weather: no significant weather observed at this time

METAR text: FXMM 220400Z 00000KT CAVOK 16/08 Q1024 NOSIG
Conditions at: FXMM (MASERU/MOSHOESHO, LS) observed 0400 UTC 22 January 2019
Temperature: 16.0°C (61°F)
Dewpoint: 8.0°C (46°F) [RH = 59%]
Pressure (altimeter): 30.24 inches Hg (1024.0 mb)
Winds: calm
Visibility: 6 or more miles (10+ km)
Ceiling: ceiling and visibility are OK
Clouds: unknown
Weather: no significant weather observed at this time

METAR text: FXMM 220300Z 36003KT CAVOK 17/07 Q1024 NOSIG
Conditions at: FXMM (MASERU/MOSHOESHO, LS) observed 0300 UTC 22 January 2019
Temperature: 17.0°C (63°F)
Dewpoint: 7.0°C (45°F) [RH = 52%]
Pressure (altimeter): 30.24 inches Hg (1024.0 mb)
Winds: from the N (360 degrees) at 3 MPH (3 knots; 1.5 m/s)
Visibility: 6 or more miles (10+ km)
Ceiling: ceiling and visibility are OK
Clouds: unknown
Weather: no significant weather observed at this time